createdAt,value
2019-01-09T00:00:20.608Z,1.6
2019-01-09T00:03:21.079Z,2
2019-01-09T00:06:20.671Z,1.5
2019-01-09T00:09:20.784Z,1.5
2019-01-09T00:12:21.597Z,1.8
2019-01-09T00:15:20.812Z,1.7
2019-01-09T00:18:21.632Z,1.4
2019-01-09T00:21:21.177Z,1.7
2019-01-09T00:24:20.854Z,1.9
2019-01-09T00:27:20.955Z,2
2019-01-09T00:30:20.596Z,1.5
2019-01-09T00:33:20.891Z,1.3
2019-01-09T00:36:21.112Z,2
2019-01-09T00:39:20.912Z,1.4
2019-01-09T00:42:20.667Z,1.6
2019-01-09T00:45:21.082Z,1.4
2019-01-09T00:48:20.956Z,1.4
2019-01-09T00:51:21.121Z,1.8
2019-01-09T00:54:20.792Z,2
2019-01-09T00:57:20.718Z,1.4
2019-01-09T01:00:20.961Z,1.4
2019-01-09T01:03:20.832Z,1.8
2019-01-09T01:06:20.740Z,1.4
2019-01-09T01:09:20.816Z,1.4
2019-01-09T01:12:20.753Z,1.4
2019-01-09T01:15:20.759Z,1.3
2019-01-09T01:18:20.436Z,1.3
2019-01-09T01:21:20.867Z,1.5
2019-01-09T01:24:20.671Z,1.6
2019-01-09T01:27:21.082Z,1.6
2019-01-09T01:30:21.510Z,1.2
2019-01-09T01:33:21.579Z,1.5
2019-01-09T01:36:21.065Z,1.3
2019-01-09T01:39:21.065Z,1.5
2019-01-09T01:42:21.085Z,1.3
2019-01-09T01:45:21.014Z,1.4
2019-01-09T01:48:20.765Z,1.4
2019-01-09T01:51:21.016Z,1.4
2019-01-09T01:54:21.083Z,1.3
2019-01-09T01:57:20.757Z,1.3
2019-01-09T02:00:21.001Z,1.3
2019-01-09T02:03:20.951Z,2.1
2019-01-09T02:06:21.273Z,1.2
2019-01-09T02:09:20.908Z,1.4
2019-01-09T02:12:20.848Z,1.3
2019-01-09T02:15:20.966Z,1.3
2019-01-09T02:18:21.248Z,1.3
2019-01-09T02:21:21.224Z,1.3
2019-01-09T02:24:20.716Z,1.3
2019-01-09T02:27:20.677Z,1.4
2019-01-09T02:30:20.751Z,1.3
2019-01-09T02:33:20.702Z,1.7
2019-01-09T02:36:20.644Z,1.2
2019-01-09T02:39:20.765Z,1.2
2019-01-09T02:42:20.814Z,1.2
2019-01-09T02:45:20.783Z,1.5
2019-01-09T02:48:20.786Z,1.5
2019-01-09T02:51:20.602Z,1.5
2019-01-09T02:54:21.112Z,1.3
2019-01-09T02:57:21.617Z,1.2
2019-01-09T03:00:21.180Z,1.3
2019-01-09T03:03:21.062Z,1.2
2019-01-09T03:06:23.793Z,1.4
2019-01-09T03:09:20.506Z,1.3
2019-01-09T03:12:21.449Z,1.2
2019-01-09T03:15:21.460Z,1.3
2019-01-09T03:18:21.141Z,1.2
2019-01-09T03:21:22.896Z,1.3
2019-01-09T03:24:20.787Z,1.3
2019-01-09T03:27:20.733Z,1.2
2019-01-09T03:30:20.560Z,1.3
2019-01-09T03:33:20.661Z,1.5
2019-01-09T03:36:21.199Z,1.6
2019-01-09T03:39:20.982Z,1.4
2019-01-09T03:42:21.034Z,1.3
2019-01-09T03:45:20.719Z,1.8
2019-01-09T03:48:20.654Z,1.5
2019-01-09T03:51:20.811Z,1.5
2019-01-09T03:54:21.465Z,1.3
2019-01-09T03:57:20.679Z,1.2
2019-01-09T04:00:20.600Z,1.2
2019-01-09T04:03:20.975Z,1.3
2019-01-09T04:06:21.164Z,1.3
2019-01-09T04:09:20.887Z,1.2
2019-01-09T04:12:20.769Z,1.3
2019-01-09T04:15:20.801Z,1.2
2019-01-09T04:18:20.546Z,1.2
2019-01-09T04:21:20.793Z,1.6
2019-01-09T04:24:20.793Z,1.2
2019-01-09T04:27:20.965Z,1.3
2019-01-09T04:30:20.876Z,1.2
2019-01-09T04:33:20.887Z,1.3
2019-01-09T04:36:20.561Z,1.3
2019-01-09T04:39:21.532Z,1.1
2019-01-09T04:42:20.484Z,1.3
2019-01-09T04:45:20.933Z,1.4
2019-01-09T04:48:21.110Z,1.1
2019-01-09T04:51:20.980Z,1.2
2019-01-09T04:54:20.480Z,1.5
2019-01-09T04:57:20.573Z,1.3
2019-01-09T05:00:21.312Z,1.4
2019-01-09T05:03:20.730Z,1.3
2019-01-09T05:06:21.023Z,1
2019-01-09T05:09:21.116Z,1.1
2019-01-09T05:12:21.094Z,1.3
2019-01-09T05:15:20.574Z,1.2
2019-01-09T05:18:20.956Z,1.3
2019-01-09T05:21:21.050Z,1
2019-01-09T05:24:20.919Z,1.1
2019-01-09T05:27:21.041Z,1.1
2019-01-09T05:30:20.717Z,1.1
2019-01-09T05:33:21.230Z,1.1
2019-01-09T05:36:20.511Z,0.9
2019-01-09T05:39:20.719Z,1.3
2019-01-09T05:42:20.944Z,1.3
2019-01-09T05:45:20.988Z,1.2
2019-01-09T05:48:20.838Z,1.3
2019-01-09T05:51:20.860Z,1.3
2019-01-09T05:54:20.555Z,1.3
2019-01-09T05:57:21.134Z,1.2
2019-01-09T06:00:20.762Z,1.1
2019-01-09T06:03:20.782Z,1.1
2019-01-09T06:06:20.893Z,1.1
2019-01-09T06:09:21.054Z,1.3
2019-01-09T06:12:20.514Z,1.2
2019-01-09T06:15:20.444Z,1.4
2019-01-09T06:18:20.620Z,1.2
2019-01-09T06:21:20.469Z,1.3
2019-01-09T06:24:20.584Z,1.2
2019-01-09T06:27:21.111Z,1.2
2019-01-09T06:30:20.434Z,0.9
2019-01-09T06:33:20.969Z,1.2
2019-01-09T06:36:21.356Z,1.3
2019-01-09T06:39:21.596Z,1.5
2019-01-09T06:42:20.873Z,1.2
2019-01-09T06:45:20.815Z,1.2
2019-01-09T06:48:20.925Z,0.9
2019-01-09T06:51:21.520Z,2
2019-01-09T06:54:21.193Z,1.7
2019-01-09T06:57:20.787Z,1.3
2019-01-09T07:00:20.355Z,1.2
2019-01-09T07:03:20.438Z,1.1
2019-01-09T07:06:20.738Z,0.9
2019-01-09T07:09:20.954Z,1.2
2019-01-09T07:12:20.800Z,3.9
2019-01-09T07:15:20.928Z,4.3
2019-01-09T07:18:20.479Z,3.2
2019-01-09T07:21:20.834Z,4.6
2019-01-09T07:24:20.560Z,2.8
2019-01-09T07:27:20.961Z,4.9
2019-01-09T07:30:20.769Z,2.3
2019-01-09T07:33:20.738Z,2.8
2019-01-09T07:36:20.717Z,1.8
2019-01-09T07:39:20.565Z,2.3
2019-01-09T07:42:20.789Z,3.6
2019-01-09T07:45:20.426Z,2.3
2019-01-09T07:48:20.548Z,4.1
2019-01-09T07:51:20.579Z,1.7
2019-01-09T07:54:21.175Z,2
2019-01-09T07:57:21.110Z,2.7
2019-01-09T08:00:21.254Z,1.6
2019-01-09T08:03:20.818Z,1.5
2019-01-09T08:06:20.749Z,2
2019-01-09T08:09:20.474Z,2.4
2019-01-09T08:12:21.220Z,1.6
2019-01-09T08:15:20.836Z,1.5
2019-01-09T08:18:20.706Z,1.6
2019-01-09T08:21:21.467Z,1.7
2019-01-09T08:24:20.873Z,2.1
2019-01-09T08:27:20.957Z,1.7
2019-01-09T08:30:20.953Z,2
2019-01-09T08:33:20.690Z,1.4
2019-01-09T08:36:21.377Z,1.4
2019-01-09T08:39:23.102Z,3.8
2019-01-09T08:42:20.680Z,2.2
2019-01-09T08:45:20.971Z,1.8
2019-01-09T08:48:21.184Z,1.7
2019-01-09T08:51:21.013Z,1.2
2019-01-09T08:54:20.870Z,1.5
2019-01-09T08:57:21.321Z,2.3
2019-01-09T09:00:20.347Z,1.8
2019-01-09T09:03:20.747Z,3
2019-01-09T09:06:20.552Z,2
2019-01-09T09:09:20.443Z,1.4
2019-01-09T09:12:20.363Z,2.9
2019-01-09T09:15:20.765Z,2.1
2019-01-09T09:18:20.747Z,1.8
2019-01-09T09:21:20.423Z,1.6
2019-01-09T09:24:20.310Z,1.6
2019-01-09T09:27:20.364Z,1.5
2019-01-09T09:30:20.446Z,2.1
2019-01-09T09:37:12.756Z,2.6
2019-01-09T09:40:12.912Z,1.8
2019-01-09T09:43:12.858Z,2.1
2019-01-09T09:46:12.570Z,1.6
2019-01-09T09:49:13.077Z,1.3
2019-01-09T09:52:12.790Z,1.9
2019-01-09T09:55:13.680Z,1.5
2019-01-09T09:58:12.769Z,1.3
2019-01-09T10:01:12.960Z,2.2
2019-01-09T10:04:12.995Z,1.9
2019-01-09T10:07:12.727Z,1.4
2019-01-09T10:10:13.102Z,1.3
2019-01-09T10:13:13.084Z,2.1
2019-01-09T10:16:12.488Z,2.1
2019-01-09T10:19:12.444Z,1.3
2019-01-09T10:22:13.110Z,2.5
2019-01-09T10:25:13.031Z,1.8
2019-01-09T10:28:12.843Z,3.4
2019-01-09T10:39:13.556Z,1.6
2019-01-09T10:42:13.978Z,1.6
2019-01-09T10:49:46.326Z,3.4
2019-01-09T10:52:46.270Z,3.7
2019-01-09T10:55:46.398Z,1.4
2019-01-09T11:03:28.960Z,1.7
2019-01-09T11:09:54.953Z,2.2
2019-01-09T11:12:55.472Z,1.8
2019-01-09T11:19:30.367Z,4.6
2019-01-09T11:22:29.670Z,4.8
2019-01-09T11:25:30.060Z,2.7
2019-01-09T11:28:30.241Z,2.6
2019-01-09T11:31:30.305Z,2
2019-01-09T11:34:29.958Z,2.6
2019-01-09T11:37:30.497Z,4.4
2019-01-09T11:40:30.366Z,1.9
2019-01-09T11:43:30.419Z,2
2019-01-09T11:46:29.901Z,2.5
2019-01-09T11:49:31.140Z,1.9
2019-01-09T12:52:49.007Z,1.7
2019-01-09T12:55:49.236Z,1.4
2019-01-09T13:06:43.340Z,2
2019-01-09T13:09:43.895Z,2
2019-01-09T13:12:43.341Z,2.6
2019-01-09T13:15:43.237Z,1.7
2019-01-09T13:18:43.319Z,1.7
2019-01-09T13:21:43.727Z,2.5
2019-01-09T13:24:43.266Z,2
2019-01-09T13:27:44.008Z,2.4
2019-01-09T13:32:58.467Z,1.5
2019-01-09T13:39:31.320Z,4.3
2019-01-09T13:46:34.679Z,2
2019-01-09T13:49:34.617Z,4.7
2019-01-09T13:52:35.642Z,2.7
2019-01-09T13:55:34.777Z,3
2019-01-09T13:58:34.695Z,2.1
2019-01-09T14:01:34.734Z,3.5
2019-01-09T14:04:34.775Z,2.2
2019-01-09T14:07:35.527Z,1.6
2019-01-09T14:10:34.954Z,2
2019-01-09T14:13:34.725Z,2.1
2019-01-09T14:16:34.888Z,2.2
2019-01-09T14:19:34.785Z,1.7
2019-01-09T14:22:35.027Z,2
2019-01-09T14:25:34.814Z,2.1
2019-01-09T14:28:34.528Z,2.4
2019-01-09T14:31:34.914Z,3.1
2019-01-09T14:34:34.494Z,1.8
2019-01-09T14:37:35.030Z,2
2019-01-09T14:40:37.607Z,1.9
2019-01-09T14:43:35.380Z,10.4
2019-01-09T14:46:34.686Z,2.1
2019-01-09T14:49:35.150Z,2.3
2019-01-09T14:52:35.045Z,2.7
2019-01-09T14:55:34.986Z,2.8
2019-01-09T14:58:35.538Z,2.4
2019-01-09T15:01:34.898Z,3
2019-01-09T15:04:35.683Z,2.4
2019-01-09T15:07:34.718Z,2
2019-01-09T15:15:03.630Z,2.8
2019-01-09T15:21:36.865Z,2.9
2019-01-09T15:24:36.933Z,1.8
2019-01-09T15:27:37.818Z,2.7
2019-01-09T15:30:37.011Z,2.9
2019-01-09T15:33:37.281Z,3.2
2019-01-09T15:36:37.709Z,2
2019-01-09T15:44:57.455Z,2.8
2019-01-09T15:47:57.286Z,1.8
2019-01-09T15:50:57.363Z,3.3
2019-01-09T15:53:59.146Z,8.9
2019-01-09T15:56:57.794Z,7.2
2019-01-09T15:59:58.037Z,5.6
2019-01-09T16:02:57.253Z,4.9
2019-01-09T16:05:57.081Z,6.8
2019-01-09T16:08:57.703Z,6.3
2019-01-09T16:11:57.788Z,5.1
2019-01-09T16:14:57.551Z,4.6
2019-01-09T16:17:57.618Z,4
2019-01-09T16:21:00.705Z,3.6
2019-01-09T16:23:57.487Z,3.1
2019-01-09T16:26:57.386Z,2.4
2019-01-09T16:29:57.515Z,4.1
2019-01-09T16:32:57.348Z,3.1
2019-01-09T16:35:57.432Z,4.9
2019-01-09T16:38:58.038Z,4.1
2019-01-09T16:41:57.439Z,3.4
2019-01-09T16:47:20.464Z,2.6
2019-01-09T16:50:20.770Z,4
2019-01-09T16:53:20.598Z,3.3
2019-01-09T16:56:23.454Z,3.3
2019-01-09T16:59:20.563Z,3.3
2019-01-09T17:02:21.244Z,4.4
2019-01-09T17:05:24.146Z,4.6
2019-01-09T17:08:20.981Z,3.3
2019-01-09T17:11:20.909Z,2.4
2019-01-09T17:14:20.872Z,4.3
2019-01-09T17:17:20.916Z,3.6
2019-01-09T17:20:20.902Z,3.3
2019-01-09T17:23:20.668Z,3.9
2019-01-09T17:26:21.212Z,3.4
2019-01-09T17:29:21.544Z,2.8
2019-01-09T17:32:22.550Z,1.6
2019-01-09T17:35:21.372Z,2.3
2019-01-09T17:38:20.590Z,1.8
2019-01-09T17:41:20.843Z,2.5
2019-01-09T17:44:20.936Z,3
2019-01-09T17:47:20.936Z,3.6
2019-01-09T17:50:20.744Z,1.6
2019-01-09T17:53:21.852Z,1.5
2019-01-09T17:56:20.939Z,2.6
2019-01-09T17:59:27.132Z,1.7
2019-01-09T18:02:28.858Z,1.4
2019-01-09T18:05:21.689Z,2
2019-01-09T18:08:20.731Z,1.9
2019-01-09T18:11:21.155Z,1.4
2019-01-09T18:14:20.961Z,3
2019-01-09T18:17:23.742Z,1.6
2019-01-09T18:20:21.176Z,2.2
2019-01-09T18:23:20.839Z,2.3
2019-01-09T18:26:23.087Z,1.9
2019-01-09T18:29:21.186Z,1.7
2019-01-09T18:32:21.133Z,1.9
2019-01-09T18:35:25.511Z,1.4
2019-01-09T18:38:21.357Z,1.3
2019-01-09T18:41:20.695Z,2.1
2019-01-09T18:44:23.228Z,1.5
2019-01-09T18:47:20.653Z,1.5
2019-01-09T18:50:20.522Z,2.9
2019-01-09T18:53:22.671Z,8
2019-01-09T18:56:20.689Z,5.1
2019-01-09T18:59:20.905Z,2.6
2019-01-09T19:02:23.456Z,4.7
2019-01-09T19:05:20.798Z,9.4
2019-01-09T19:15:38.371Z,4.5
2019-01-09T19:18:38.320Z,7.7
2019-01-09T19:21:38.885Z,6
2019-01-09T19:24:40.083Z,8.9
2019-01-09T19:27:38.407Z,6.1
2019-01-09T19:30:38.946Z,5.5
2019-01-09T19:33:38.926Z,4.6
2019-01-09T19:36:38.212Z,5.2
2019-01-09T19:39:40.102Z,2.9
2019-01-09T19:42:39.484Z,4.1
2019-01-09T19:45:38.654Z,3.4
2019-01-09T19:48:38.665Z,2.6
2019-01-09T19:51:38.732Z,3
2019-01-09T19:54:38.832Z,3
2019-01-09T19:57:39.137Z,3.7
2019-01-09T20:00:38.297Z,5
2019-01-09T20:03:38.236Z,3.7
2019-01-09T20:06:38.246Z,2.9
2019-01-09T20:09:38.433Z,4.8
2019-01-09T20:12:38.988Z,2.4
2019-01-09T20:15:38.964Z,4.7
2019-01-09T20:18:38.936Z,3.6
2019-01-09T20:21:40.544Z,3.8
2019-01-09T20:24:39.032Z,2.3
2019-01-09T20:27:38.493Z,5
2019-01-09T20:30:38.439Z,2.8
2019-01-09T20:33:38.690Z,2.1
2019-01-09T20:36:38.972Z,3
2019-01-09T20:39:38.403Z,2.9
2019-01-09T20:42:38.632Z,2.9
2019-01-09T20:45:39.238Z,1.8
2019-01-09T20:48:39.309Z,2.2
2019-01-09T20:51:38.800Z,2.4
2019-01-09T20:54:39.702Z,4.2
2019-01-09T20:57:38.642Z,4.5
2019-01-09T21:00:40.588Z,2.7
2019-01-09T21:03:38.606Z,2.9
2019-01-09T21:06:38.758Z,2.3
2019-01-09T21:09:39.163Z,2.8
2019-01-09T21:12:38.641Z,2.2
2019-01-09T21:15:40.132Z,3
2019-01-09T21:18:38.857Z,2.6
2019-01-09T21:21:38.544Z,2
2019-01-09T21:24:38.702Z,3.1
2019-01-09T21:27:42.652Z,1.6
2019-01-09T21:30:38.425Z,1.7
2019-01-09T21:33:38.281Z,2.3
2019-01-09T21:36:38.189Z,2.2
2019-01-09T21:39:38.647Z,2.5
2019-01-09T21:42:38.394Z,1.8
2019-01-09T21:45:38.339Z,2.8
2019-01-09T21:48:38.243Z,3.5
2019-01-09T21:51:38.126Z,3.4
2019-01-09T21:54:39.814Z,1.7
2019-01-09T21:57:40.876Z,2.7
2019-01-09T22:00:38.481Z,2.3
2019-01-09T22:03:38.712Z,1.8
2019-01-09T22:06:38.284Z,1.9
2019-01-09T22:09:38.844Z,2.4
2019-01-09T22:12:38.304Z,1.5
2019-01-09T22:15:38.295Z,1.5
2019-01-09T22:18:38.418Z,1.7
2019-01-09T22:21:38.370Z,2.7
2019-01-09T22:24:38.858Z,1.5
2019-01-09T22:27:38.446Z,1.4
2019-01-09T22:30:38.246Z,2.1
2019-01-09T22:33:38.841Z,2.6
2019-01-09T22:36:38.350Z,1.8
2019-01-09T22:39:38.428Z,1.8
2019-01-09T22:42:38.407Z,2
2019-01-09T22:45:38.139Z,1.4
2019-01-09T22:48:38.186Z,2
2019-01-09T22:51:38.301Z,1.8
2019-01-09T22:54:39.354Z,2.1
2019-01-09T22:57:38.378Z,1.8
2019-01-09T23:00:38.107Z,1.8
2019-01-09T23:03:38.062Z,1.3
2019-01-09T23:06:38.325Z,2
2019-01-09T23:09:38.548Z,2
2019-01-09T23:12:38.178Z,1.5
2019-01-09T23:15:38.476Z,2.1
2019-01-09T23:18:38.296Z,1.3
2019-01-09T23:21:38.758Z,1.6
2019-01-09T23:24:38.341Z,1.8
2019-01-09T23:27:38.146Z,1.5
2019-01-09T23:30:38.399Z,1.5
2019-01-09T23:33:38.836Z,1.4
2019-01-09T23:36:38.098Z,1.8
2019-01-09T23:39:38.246Z,1.5
2019-01-09T23:42:38.336Z,1.4
2019-01-09T23:45:38.535Z,1.4
2019-01-09T23:48:38.840Z,1.4
2019-01-09T23:51:38.237Z,1.5
2019-01-09T23:54:38.217Z,1.7
2019-01-09T23:57:38.303Z,1.7
